»·PEaware :: N350AC L52-L88

N350AC :: L52-L88

FLIGHT INFORMATION

Flight Status: Arrived
Operator: Privately registered:
United States
More flights under this callsign
Pilot: Alex I. (31258)
Aircraft: Unknown
(P28U)
More flights by this aircraft type
Origin: L52 Oceano Co
United States
Destination: L88 New Cuyama
United States
More flights between these airports :: More routes between these airports
Route:
File this flight plan on PilotEdge
Remarks:
Altitude:
(Current/Filed)
8,000ft
Speed:
(Current/Filed)
170kts
Departed: 29-Nov-21 04:05 PM
Arrived: 29-Nov-21 04:34 PM
Distance/Time
Traveled:
47nm/0:29
Distance/Time
To Go:
Arrived

Flight Plot

Page will automatically refresh every two minutes.


Map Options




Map Legend


Flown Route
Filed Route
Departure Airport
Arrival Airport
Navaid (VOR, NDB)
Fix

Horizontal Profiles

Position Reports

Time Latitude Longitude Heading Altitude Ground
Speed
29-Nov-21 15:40 35.102147 -120.622311 16 17ft 0kts
29-Nov-21 15:41 35.102147 -120.622311 16 17ft 0kts
29-Nov-21 15:42 35.102147 -120.622311 16 17ft 0kts
29-Nov-21 15:43 35.102147 -120.622311 16 17ft 0kts
29-Nov-21 15:44 35.102147 -120.622311 16 17ft 0kts
29-Nov-21 15:45 35.102147 -120.622311 16 17ft 0kts
29-Nov-21 15:46 35.102147 -120.622311 16 17ft 0kts
29-Nov-21 15:47 35.102147 -120.622311 16 17ft 0kts
29-Nov-21 15:48 35.102147 -120.622311 16 17ft 0kts
29-Nov-21 15:49 35.102147 -120.622311 16 17ft 0kts
29-Nov-21 15:50 35.102147 -120.622311 16 17ft 0kts
29-Nov-21 15:51 35.102147 -120.622311 16 17ft 0kts
29-Nov-21 15:52 35.102147 -120.622311 16 17ft 0kts
29-Nov-21 15:53 35.102147 -120.622311 16 17ft 0kts
29-Nov-21 15:54 35.102147 -120.622311 16 17ft 0kts
29-Nov-21 15:55 35.102147 -120.622311 16 17ft 0kts
29-Nov-21 15:56 35.102147 -120.622311 16 17ft 0kts
29-Nov-21 15:57 35.102147 -120.622311 16 17ft 0kts
29-Nov-21 15:58 35.102147 -120.622311 16 17ft 0kts
29-Nov-21 15:59 35.102147 -120.622311 16 17ft 0kts
29-Nov-21 16:00 35.102158 -120.622186 143 17ft 2kts
29-Nov-21 16:01 35.101028 -120.622301 123 18ft 7kts
29-Nov-21 16:02 35.099492 -120.619599 107 16ft 0kts
29-Nov-21 16:03 35.099512 -120.619476 51 16ft 0kts
29-Nov-21 16:04 35.104317 -120.627871 298 158ft 102kts
29-Nov-21 16:05 35.120958 -120.658401 343 1849ft 118kts
29-Nov-21 16:06 35.133605 -120.630411 109 3067ft 121kts
29-Nov-21 16:07 35.118608 -120.592845 114 4037ft 125kts
29-Nov-21 16:08 35.106175 -120.553041 111 4934ft 127kts
29-Nov-21 16:09 35.093945 -120.512548 111 5786ft 128kts
29-Nov-21 16:10 35.081501 -120.471436 111 6576ft 129kts
29-Nov-21 16:11 35.068418 -120.428299 111 6941ft 143kts
29-Nov-21 16:12 35.053727 -120.381882 109 6939ft 148kts
29-Nov-21 16:13 35.039792 -120.334542 106 6948ft 149kts
29-Nov-21 16:14 35.028257 -120.287212 102 7130ft 141kts
29-Nov-21 16:15 35.018689 -120.241573 102 7405ft 138kts
29-Nov-21 16:16 35.009064 -120.195540 102 7594ft 140kts
29-Nov-21 16:17 34.999450 -120.150027 102 7771ft 143kts
29-Nov-21 16:18 34.989425 -120.102477 102 7782ft 145kts
29-Nov-21 16:19 34.979319 -120.055282 102 7760ft 142kts
29-Nov-21 16:20 34.969268 -120.008653 102 7755ft 142kts
29-Nov-21 16:21 34.959249 -119.962362 102 7752ft 141kts
29-Nov-21 16:22 34.949350 -119.916145 102 7367ft 139kts
29-Nov-21 16:23 34.939795 -119.870760 102 6017ft 135kts
29-Nov-21 16:24 34.930394 -119.827141 106 4966ft 131kts
29-Nov-21 16:25 34.922003 -119.785556 104 4149ft 131kts
29-Nov-21 16:26 34.903602 -119.750404 131 3980ft 121kts
29-Nov-21 16:27 34.890279 -119.713226 101 4066ft 119kts
29-Nov-21 16:28 34.882598 -119.673828 84 4178ft 122kts
29-Nov-21 16:29 34.910577 -119.670166 324 4094ft 122kts
29-Nov-21 16:30 34.930246 -119.703951 310 3194ft 121kts
29-Nov-21 16:31 34.951160 -119.719538 62 2648ft 91kts
29-Nov-21 16:32 34.943329 -119.693606 117 2194ft 76kts
29-Nov-21 16:33 34.938817 -119.682755 114 2195ft 11kts
29-Nov-21 16:34 34.938841 -119.682188 27 2197ft 0kts
29-Nov-21 16:35 34.938841 -119.682188 27 2197ft 0kts
29-Nov-21 16:36 34.938841 -119.682188 27 2197ft 0kts
29-Nov-21 16:37 34.938841 -119.682188 27 2197ft 0kts
29-Nov-21 16:38 34.938841 -119.682188 27 2197ft 0kts
29-Nov-21 16:39 34.938841 -119.682188 27 2197ft 0kts

Navigation Log

Ident Type
Flight plan parsing failed, navigation log unavailable